Time;durP1;ratioP1;P1;durP2;ratioP2;P2;SDS_P1;SDS_P2;PMS_P1;PMS_P2;Temp;Humidity;BMP_temperature;BMP_pressure;BME280_temperature;BME280_humidity;BME280_pressure;Samples;Min_cycle;Max_cycle;Signal;HPM_P1;HPM_P2
2021/11/16 00:00:12;;;;;;;12.38;8.65;;;;;;;-140.79;100.00;63287.88;5026882;28;20026;-70
2021/11/16 00:02:38;;;;;;;12.75;8.60;;;;;;;-140.79;100.00;63287.88;5026913;28;20022;-70
2021/11/16 00:05:04;;;;;;;12.48;8.80;;;;;;;-140.79;100.00;63287.88;5026886;28;20029;-70
2021/11/16 00:07:30;;;;;;;11.80;8.05;;;;;;;-140.79;100.00;63287.88;5027214;28;20083;-70
2021/11/16 00:09:55;;;;;;;11.90;8.52;;;;;;;-140.79;100.00;63287.88;5027046;28;20712;-69
2021/11/16 00:12:21;;;;;;;12.60;8.40;;;;;;;-140.79;100.00;63287.88;5026707;28;20040;-69
2021/11/16 00:14:47;;;;;;;12.35;8.80;;;;;;;-140.79;100.00;63287.88;5026843;28;20525;-70
2021/11/16 00:17:13;;;;;;;12.18;8.40;;;;;;;-140.79;100.00;63287.88;5026365;28;20033;-70
2021/11/16 00:19:39;;;;;;;12.13;8.63;;;;;;;-140.79;100.00;63287.88;5026517;28;20029;-69
2021/11/16 00:22:07;;;;;;;12.23;8.38;;;;;;;-140.79;100.00;63287.88;5026469;28;20025;-70
2021/11/16 00:24:40;;;;;;;13.27;8.73;;;;;;;-140.79;100.00;63287.88;5026121;28;20530;-69
2021/11/16 00:27:06;;;;;;;12.60;8.75;;;;;;;-140.79;100.00;63287.88;5025677;28;20037;-69
2021/11/16 00:29:33;;;;;;;13.50;8.93;;;;;;;-140.79;100.00;63287.88;5026198;28;20029;-70
2021/11/16 00:31:58;;;;;;;13.13;8.82;;;;;;;-140.79;100.00;63287.88;5025901;28;20179;-71
2021/11/16 00:34:24;;;;;;;14.20;9.43;;;;;;;-140.79;100.00;63287.88;5026120;28;20037;-69
2021/11/16 00:36:49;;;;;;;13.57;9.20;;;;;;;-140.79;100.00;63287.88;5025678;28;20036;-71
2021/11/16 00:39:15;;;;;;;12.43;8.63;;;;;;;-140.79;100.00;63287.88;5025555;28;20084;-69
2021/11/16 00:41:42;;;;;;;14.70;9.52;;;;;;;-140.79;100.00;63287.88;5024686;28;20033;-69
2021/11/16 00:44:08;;;;;;;12.27;8.63;;;;;;;-140.79;100.00;63287.88;5025634;28;20051;-70
2021/11/16 00:46:33;;;;;;;13.10;8.80;;;;;;;-140.79;100.00;63287.88;5025413;28;20029;-71
2021/11/16 00:48:59;;;;;;;12.93;9.20;;;;;;;-140.79;100.00;63287.88;5025632;28;20083;-71
2021/11/16 00:51:25;;;;;;;12.60;8.98;;;;;;;-140.79;100.00;63287.88;5024230;28;20037;-70
2021/11/16 00:53:50;;;;;;;13.68;9.35;;;;;;;-140.79;100.00;63287.88;5025883;28;20029;-70
2021/11/16 00:56:16;;;;;;;13.80;9.10;;;;;;;-140.79;100.00;63287.88;5031496;28;20098;-70
2021/11/16 00:58:41;;;;;;;14.13;9.70;;;;;;;-140.79;100.00;63287.88;5045190;28;20033;-70
2021/11/16 01:03:42;;;;;;;14.07;9.55;;;;;;;-140.79;100.00;63287.88;4369770;26;20097;-62
2021/11/16 01:06:08;;;;;;;13.68;9.35;;;;;;;-140.79;100.00;63287.88;5045320;28;20041;-62
2021/11/16 01:08:33;;;;;;;14.70;9.93;;;;;;;-140.79;100.00;63287.88;5044950;28;20041;-62
2021/11/16 01:10:59;;;;;;;14.00;9.27;;;;;;;-140.79;100.00;63287.88;5027223;28;20028;-62
2021/11/16 01:13:25;;;;;;;14.27;9.57;;;;;;;-140.79;100.00;63287.88;5044124;28;20029;-62
2021/11/16 01:15:50;;;;;;;15.02;10.15;;;;;;;-140.79;100.00;63287.88;5045251;28;20556;-61
2021/11/16 01:18:16;;;;;;;14.88;10.15;;;;;;;-140.79;100.00;63287.88;5026815;28;20025;-62
2021/11/16 01:20:42;;;;;;;14.68;9.30;;;;;;;-140.79;100.00;63287.88;5043691;28;20110;-62
2021/11/16 01:23:09;;;;;;;15.20;9.73;;;;;;;-140.79;100.00;63287.88;5045339;28;20029;-62
2021/11/16 01:25:37;;;;;;;14.68;9.85;;;;;;;-140.79;100.00;63287.88;5027258;28;20029;-62
2021/11/16 01:28:11;;;;;;;14.70;9.60;;;;;;;-140.79;100.00;63287.88;5044254;28;20036;-62
2021/11/16 01:30:38;;;;;;;16.02;9.95;;;;;;;-140.79;100.00;63287.88;5044970;28;20511;-62
2021/11/16 01:33:09;;;;;;;15.85;10.40;;;;;;;-140.79;100.00;63287.88;5044983;28;20025;-62
2021/11/16 01:35:36;;;;;;;13.90;9.77;;;;;;;-140.79;100.00;63287.88;5045046;28;20487;-62
2021/11/16 01:38:02;;;;;;;13.27;9.00;;;;;;;-140.79;100.00;63287.88;5044743;28;20090;-62
2021/11/16 01:40:28;;;;;;;13.82;9.70;;;;;;;-140.79;100.00;63287.88;5043594;28;20028;-62
2021/11/16 01:42:53;;;;;;;14.60;9.98;;;;;;;-140.79;100.00;63287.88;5045276;28;20032;-62
2021/11/16 01:45:19;;;;;;;13.55;9.20;;;;;;;-140.79;100.00;63287.88;5044969;28;20107;-62
2021/11/16 01:47:45;;;;;;;13.30;9.57;;;;;;;-140.79;100.00;63287.88;5044625;28;20033;-62
2021/11/16 01:50:12;;;;;;;14.85;9.73;;;;;;;-140.79;100.00;63287.88;5045119;28;20119;-61
2021/11/16 01:52:37;;;;;;;16.33;11.20;;;;;;;-140.79;100.00;63287.88;5043348;28;20090;-62
2021/11/16 01:55:05;;;;;;;14.88;9.77;;;;;;;-140.79;100.00;63287.88;5045048;28;20452;-61
2021/11/16 01:57:30;;;;;;;14.55;10.43;;;;;;;-140.79;100.00;63287.88;5044607;28;20036;-62
2021/11/16 01:59:56;;;;;;;14.43;9.93;;;;;;;-140.79;100.00;63287.88;5043072;28;20037;-62
2021/11/16 02:02:22;;;;;;;14.57;10.00;;;;;;;-140.79;100.00;63287.88;5044684;28;20057;-62
2021/11/16 02:04:47;;;;;;;14.30;9.85;;;;;;;-140.79;100.00;63287.88;5044723;28;20032;-62
2021/11/16 02:07:13;;;;;;;14.98;10.48;;;;;;;-140.79;100.00;63287.88;5044199;28;20037;-62
2021/11/16 02:09:38;;;;;;;16.55;10.30;;;;;;;-140.79;100.00;63287.88;5044312;28;20051;-62
2021/11/16 02:12:04;;;;;;;15.02;10.20;;;;;;;-140.79;100.00;63287.88;5044293;28;20021;-62
2021/11/16 02:14:30;;;;;;;13.80;9.52;;;;;;;-140.79;100.00;63287.88;5044568;28;20109;-62
2021/11/16 02:16:55;;;;;;;15.32;10.40;;;;;;;-140.79;100.00;63287.88;5044131;28;20438;-62
2021/11/16 02:19:21;;;;;;;14.77;9.77;;;;;;;-140.79;100.00;63287.88;5044405;28;20773;-62
2021/11/16 02:21:48;;;;;;;14.13;10.02;;;;;;;-140.79;100.00;63287.88;5043207;28;20072;-62
2021/11/16 02:24:13;;;;;;;14.23;9.93;;;;;;;-140.79;100.00;63287.88;5044416;28;20024;-62
2021/11/16 02:26:39;;;;;;;14.88;10.10;;;;;;;-140.79;100.00;63287.88;5044218;28;20083;-62
2021/11/16 02:29:04;;;;;;;15.82;10.60;;;;;;;-140.79;100.00;63287.88;5044194;28;20083;-62
2021/11/16 02:31:30;;;;;;;15.38;10.07;;;;;;;-140.79;100.00;63287.88;5043106;28;20035;-62
2021/11/16 02:33:56;;;;;;;16.23;10.38;;;;;;;-140.79;100.00;63287.88;5044250;28;20572;-62
2021/11/16 02:36:26;;;;;;;13.07;9.35;;;;;;;-140.79;100.00;63287.88;5044317;28;20025;-62
2021/11/16 02:38:51;;;;;;;14.88;9.80;;;;;;;-140.79;100.00;63287.88;5026557;28;20025;-62
2021/11/16 02:41:17;;;;;;;16.00;10.05;;;;;;;-140.79;100.00;63287.88;5047781;28;20025;-62
2021/11/16 02:43:42;;;;;;;15.88;10.20;;;;;;;-140.79;100.00;63287.88;5048059;28;20017;-61
2021/11/16 02:46:08;;;;;;;15.38;10.35;;;;;;;-140.79;100.00;63287.88;5047849;28;20121;-62
2021/11/16 02:48:34;;;;;;;15.48;10.20;;;;;;;-140.79;100.00;63287.88;5047704;28;20021;-62
2021/11/16 02:51:03;;;;;;;15.15;10.38;;;;;;;-140.79;100.00;63287.88;5047908;28;20029;-61
2021/11/16 02:53:28;;;;;;;14.85;10.02;;;;;;;-140.79;100.00;63287.88;5047820;28;20673;-61
2021/11/16 02:55:54;;;;;;;16.05;10.40;;;;;;;-140.79;100.00;63287.88;5048037;28;20048;-62
2021/11/16 02:58:20;;;;;;;15.05;10.00;;;;;;;-140.79;100.00;63287.88;5047605;28;20040;-61
2021/11/16 03:00:50;;;;;;;15.93;10.63;;;;;;;-140.79;100.00;63287.88;5047523;28;20905;-61
2021/11/16 03:03:17;;;;;;;15.00;9.93;;;;;;;-140.79;100.00;63287.88;5046195;28;20049;-61
2021/11/16 03:05:42;;;;;;;16.15;10.10;;;;;;;-140.79;100.00;63287.88;5047607;28;20414;-62
2021/11/16 03:08:23;;;;;;;15.77;10.38;;;;;;;-140.79;100.00;63287.88;5047308;28;20029;-62
2021/11/16 03:10:51;;;;;;;13.27;9.32;;;;;;;-140.79;100.00;63287.88;5047983;28;20025;-61
2021/11/16 03:13:16;;;;;;;17.95;11.20;;;;;;;-140.79;100.00;63287.88;5047219;28;20605;-62
2021/11/16 03:15:42;;;;;;;17.73;10.52;;;;;;;-140.79;100.00;63287.88;5047577;28;20108;-62
2021/11/16 03:18:08;;;;;;;14.80;10.13;;;;;;;-140.79;100.00;63287.88;5046098;28;20028;-62
2021/11/16 03:20:33;;;;;;;15.00;10.02;;;;;;;-140.79;100.00;63287.88;5047451;28;20741;-62
2021/11/16 03:23:10;;;;;;;16.52;11.05;;;;;;;-140.79;100.00;63287.88;5045846;28;20044;-62
2021/11/16 03:25:39;;;;;;;15.18;10.45;;;;;;;-140.79;100.00;63287.88;5046983;28;20057;-62
2021/11/16 03:28:08;;;;;;;15.02;10.25;;;;;;;-140.79;100.00;63287.88;5047307;28;20534;-62
2021/11/16 03:30:34;;;;;;;15.30;10.57;;;;;;;-140.79;100.00;63287.88;5047169;28;20033;-62
2021/11/16 03:33:00;;;;;;;16.23;10.68;;;;;;;-140.79;100.00;63287.88;5046781;28;20656;-61
2021/11/16 03:35:25;;;;;;;14.38;9.90;;;;;;;-140.79;100.00;63287.88;5047226;28;20897;-62
2021/11/16 03:37:55;;;;;;;15.63;10.63;;;;;;;-140.79;100.00;63287.88;5046936;28;20040;-62
2021/11/16 03:40:21;;;;;;;16.43;10.67;;;;;;;-140.79;100.00;63287.88;5045747;28;20021;-63
2021/11/16 03:42:47;;;;;;;15.18;10.20;;;;;;;-140.79;100.00;63287.88;5046820;28;20279;-61
2021/11/16 03:45:13;;;;;;;16.40;10.52;;;;;;;-140.79;100.00;63287.88;5045718;28;20039;-61
2021/11/16 03:47:38;;;;;;;15.57;10.50;;;;;;;-140.79;100.00;63287.88;5046664;28;20021;-61
2021/11/16 03:50:09;;;;;;;15.80;10.05;;;;;;;-140.79;100.00;63287.88;5045346;28;20403;-61
2021/11/16 03:52:39;;;;;;;15.23;9.93;;;;;;;-140.79;100.00;63287.88;5045944;28;20033;-62
2021/11/16 03:55:05;;;;;;;16.17;10.35;;;;;;;-140.79;100.00;63287.88;5046542;28;20096;-61
2021/11/16 03:57:30;;;;;;;15.82;10.48;;;;;;;-140.79;100.00;63287.88;5046514;28;20033;-61
2021/11/16 03:59:56;;;;;;;16.02;10.43;;;;;;;-140.79;100.00;63287.88;5044988;28;20582;-61
2021/11/16 04:02:21;;;;;;;15.85;10.18;;;;;;;-140.79;100.00;63287.88;5046617;28;20044;-61
2021/11/16 04:04:52;;;;;;;14.07;9.95;;;;;;;-140.79;100.00;63287.88;5046538;28;20033;-61
2021/11/16 04:07:17;;;;;;;15.38;10.15;;;;;;;-140.79;100.00;63287.88;5046331;28;20033;-61
2021/11/16 04:09:43;;;;;;;15.90;10.07;;;;;;;-140.79;100.00;63287.88;5046462;28;20040;-61
2021/11/16 04:12:09;;;;;;;14.27;9.57;;;;;;;-140.79;100.00;63287.88;5046341;28;20029;-61
2021/11/16 04:14:34;;;;;;;15.50;10.27;;;;;;;-140.79;100.00;63287.88;5046375;28;20816;-61
2021/11/16 04:17:00;;;;;;;15.88;9.80;;;;;;;-140.79;100.00;63287.88;5046209;28;20029;-61
2021/11/16 04:19:25;;;;;;;16.00;10.80;;;;;;;-140.79;100.00;63287.88;5028514;28;20045;-61
2021/11/16 04:21:51;;;;;;;13.90;9.40;;;;;;;-140.79;100.00;63287.88;5046249;28;20478;-61
2021/11/16 04:24:16;;;;;;;14.50;9.60;;;;;;;-140.79;100.00;63287.88;5044836;28;20686;-61
2021/11/16 04:26:42;;;;;;;14.57;10.27;;;;;;;-140.79;100.00;63287.88;5046413;28;20434;-61
2021/11/16 04:29:07;;;;;;;14.65;9.95;;;;;;;-140.79;100.00;63287.88;5046322;28;20029;-61
2021/11/16 04:31:33;;;;;;;13.10;9.52;;;;;;;-140.79;100.00;63287.88;5045679;28;20036;-61
2021/11/16 04:34:06;;;;;;;16.23;10.27;;;;;;;-140.79;100.00;63287.88;5045960;28;20423;-60
2021/11/16 04:36:32;;;;;;;14.77;9.80;;;;;;;-140.79;100.00;63287.88;5045926;28;20059;-61
2021/11/16 04:38:57;;;;;;;15.55;10.23;;;;;;;-140.79;100.00;63287.88;5027759;28;20036;-61
2021/11/16 04:41:23;;;;;;;14.60;10.10;;;;;;;-140.79;100.00;63287.88;5045756;28;20017;-62
2021/11/16 04:43:48;;;;;;;14.95;10.05;;;;;;;-140.79;100.00;63287.88;5045676;28;20720;-61
2021/11/16 04:46:18;;;;;;;13.77;9.60;;;;;;;-140.79;100.00;63287.88;5045598;28;20020;-61
2021/11/16 04:51:30;;;;;;;13.88;9.65;;;;;;;-140.79;100.00;63287.88;5045521;28;20118;-61
2021/11/16 04:54:16;;;;;;;13.77;9.10;;;;;;;-140.79;100.00;63287.88;5045574;28;20036;-60
2021/11/16 05:04:44;;;;;;;14.55;9.65;;;;;;;-140.79;100.00;63287.88;5044711;28;20102;-61
2021/11/16 05:07:15;;;;;;;13.82;9.10;;;;;;;-140.79;100.00;63287.88;5027457;28;20493;-61
2021/11/16 05:09:54;;;;;;;14.90;9.50;;;;;;;-140.79;100.00;63287.88;5045295;28;20039;-61
2021/11/16 05:12:19;;;;;;;14.82;9.90;;;;;;;-140.79;100.00;63287.88;5044798;28;20519;-61
2021/11/16 05:14:45;;;;;;;14.90;9.85;;;;;;;-140.79;100.00;63287.88;5045225;28;20107;-61
2021/11/16 05:17:11;;;;;;;14.07;9.57;;;;;;;-140.79;100.00;63287.88;5045163;28;20029;-61
2021/11/16 05:19:36;;;;;;;14.05;9.52;;;;;;;-140.79;100.00;63287.88;5044996;28;20637;-61
2021/11/16 05:22:02;;;;;;;15.35;9.77;;;;;;;-140.79;100.00;63287.88;5044849;28;20600;-61
2021/11/16 05:24:27;;;;;;;14.88;9.32;;;;;;;-140.79;100.00;63287.88;5044853;28;20032;-61
2021/11/16 05:26:53;;;;;;;14.43;9.25;;;;;;;-140.79;100.00;63287.88;5044999;28;20040;-62
2021/11/16 05:29:18;;;;;;;14.30;8.88;;;;;;;-140.79;100.00;63287.88;5041592;28;20017;-63
2021/11/16 05:31:44;;;;;;;12.25;8.60;;;;;;;-140.79;100.00;63287.88;5043466;28;20040;-64
2021/11/16 05:34:09;;;;;;;13.32;8.57;;;;;;;-140.79;100.00;63287.88;5043200;28;20029;-65
2021/11/16 05:36:35;;;;;;;12.73;8.68;;;;;;;-140.79;100.00;63287.88;5042224;28;20033;-62
2021/11/16 05:39:00;;;;;;;12.93;8.98;;;;;;;-140.79;100.00;63287.88;5025414;28;20036;-63
2021/11/16 05:41:26;;;;;;;12.02;8.13;;;;;;;-140.79;100.00;63287.88;5043597;28;20037;-62
2021/11/16 05:43:51;;;;;;;13.27;8.45;;;;;;;-140.79;100.00;63287.88;5042868;28;20483;-65
2021/11/16 05:46:20;;;;;;;13.65;9.13;;;;;;;-140.79;100.00;63287.88;5026733;28;20025;-62
2021/11/16 05:48:46;;;;;;;14.38;8.95;;;;;;;-140.79;100.00;63287.88;5044299;28;20037;-62
2021/11/16 05:51:12;;;;;;;12.70;8.55;;;;;;;-140.79;100.00;63287.88;5042826;28;20021;-61
2021/11/16 05:53:40;;;;;;;11.88;8.15;;;;;;;-140.79;100.00;63287.88;5044258;28;20028;-61
2021/11/16 05:56:06;;;;;;;13.45;8.55;;;;;;;-140.79;100.00;63287.88;5043358;28;20036;-61
2021/11/16 05:58:31;;;;;;;11.70;8.10;;;;;;;-140.79;100.00;63287.88;5043167;28;20715;-64
2021/11/16 06:00:57;;;;;;;14.25;8.45;;;;;;;-140.79;100.00;63287.88;5042656;28;20024;-61
2021/11/16 06:03:22;;;;;;;12.77;8.82;;;;;;;-140.79;100.00;63287.88;5043153;28;20568;-63
2021/11/16 06:05:48;;;;;;;11.43;7.80;;;;;;;-140.79;100.00;63287.88;5042377;28;20570;-63
2021/11/16 06:08:24;;;;;;;11.55;8.02;;;;;;;-140.79;100.00;63287.88;5042841;28;20055;-64
2021/11/16 06:10:49;;;;;;;11.82;7.88;;;;;;;-140.79;100.00;63287.88;5043270;28;20024;-65
2021/11/16 06:13:15;;;;;;;11.60;7.72;;;;;;;-140.79;100.00;63287.88;5041728;28;20033;-61
2021/11/16 06:15:40;;;;;;;11.48;7.82;;;;;;;-140.79;100.00;63287.88;5045731;28;20050;-64
2021/11/16 06:18:06;;;;;;;12.35;7.53;;;;;;;-140.79;100.00;63287.88;5046682;28;20545;-65
2021/11/16 06:20:31;;;;;;;13.32;8.10;;;;;;;-140.79;100.00;63287.88;5047577;28;20025;-63
2021/11/16 06:22:57;;;;;;;11.65;7.65;;;;;;;-140.79;100.00;63287.88;5029032;28;20025;-63
2021/11/16 06:25:22;;;;;;;11.65;7.38;;;;;;;-140.79;100.00;63287.88;5047451;28;20013;-63
2021/11/16 06:27:48;;;;;;;10.50;7.20;;;;;;;-140.79;100.00;63287.88;5047044;28;20025;-62
2021/11/16 06:30:14;;;;;;;11.65;7.90;;;;;;;-140.79;100.00;63287.88;5046702;28;20029;-63
2021/11/16 06:32:39;;;;;;;11.48;7.47;;;;;;;-140.79;100.00;63287.88;5045558;28;20021;-63
2021/11/16 06:35:05;;;;;;;10.63;7.07;;;;;;;-140.79;100.00;63287.88;5047265;28;20020;-63
2021/11/16 06:37:30;;;;;;;11.38;7.55;;;;;;;-140.79;100.00;63287.88;5046748;28;20033;-63
2021/11/16 06:39:56;;;;;;;10.38;7.25;;;;;;;-140.79;100.00;63287.88;5046692;28;20029;-63
2021/11/16 06:42:21;;;;;;;11.13;7.18;;;;;;;-140.79;100.00;63287.88;5047100;28;20021;-63
2021/11/16 06:44:48;;;;;;;9.45;7.05;;;;;;;-140.79;100.00;63287.88;5046530;28;20021;-63
2021/11/16 06:47:14;;;;;;;10.75;6.93;;;;;;;-140.79;100.00;63287.88;5045401;28;20021;-63
2021/11/16 06:49:50;;;;;;;10.50;7.20;;;;;;;-140.79;100.00;63287.88;5028815;28;20024;-63
2021/11/16 06:52:16;;;;;;;10.50;7.10;;;;;;;-140.79;100.00;63287.88;5045012;28;20067;-63
2021/11/16 06:54:41;;;;;;;9.75;7.07;;;;;;;-140.79;100.00;63287.88;5046526;28;20017;-63
2021/11/16 06:57:07;;;;;;;10.27;7.15;;;;;;;-140.79;100.00;63287.88;5046417;28;20025;-63
2021/11/16 06:59:32;;;;;;;10.43;7.47;;;;;;;-140.79;100.00;63287.88;5046952;28;20021;-64
2021/11/16 07:01:58;;;;;;;11.23;6.90;;;;;;;-140.79;100.00;63287.88;5046635;28;20513;-63
2021/11/16 07:04:24;;;;;;;9.38;6.38;;;;;;;-140.79;100.00;63287.88;5022479;28;20129;-64
2021/11/16 07:06:50;;;;;;;9.20;6.35;;;;;;;-140.79;100.00;63287.88;5007337;28;20490;-63
2021/11/16 07:09:16;;;;;;;11.00;7.05;;;;;;;-140.79;100.00;63287.88;5022105;28;20022;-63
2021/11/16 07:12:03;;;;;;;8.70;6.40;;;;;;;-140.79;100.00;63287.88;5007387;28;20026;-63
2021/11/16 07:14:36;;;;;;;9.50;6.10;;;;;;;-140.79;100.00;63287.88;5006832;28;20305;-64
2021/11/16 07:17:02;;;;;;;8.57;6.38;;;;;;;-140.79;100.00;63287.88;5007216;28;20496;-64
2021/11/16 07:19:33;;;;;;;9.10;6.32;;;;;;;-140.79;100.00;63287.88;5007494;28;20036;-63
2021/11/16 07:22:03;;;;;;;9.55;6.35;;;;;;;-140.79;100.00;63287.88;5006811;28;20021;-63
2021/11/16 07:24:29;;;;;;;9.30;6.43;;;;;;;-140.79;100.00;63287.88;5021284;28;20128;-64
2021/11/16 07:27:04;;;;;;;8.73;6.07;;;;;;;-140.79;100.00;63287.88;5005227;28;20527;-63
2021/11/16 07:29:33;;;;;;;8.75;6.13;;;;;;;-140.79;100.00;63287.88;5020052;28;20113;-63
2021/11/16 07:31:58;;;;;;;8.88;6.07;;;;;;;-140.79;100.00;63287.88;5005762;28;20037;-63
2021/11/16 07:34:23;;;;;;;8.60;6.20;;;;;;;-140.79;100.00;63287.88;5003188;28;20042;-63
2021/11/16 07:37:00;;;;;;;8.93;5.72;;;;;;;-140.79;100.00;63287.88;5006187;28;20597;-63
2021/11/16 07:39:26;;;;;;;10.52;6.22;;;;;;;-140.79;100.00;63287.88;5021337;28;20022;-63
2021/11/16 07:41:52;;;;;;;9.00;6.20;;;;;;;-140.79;100.00;63287.88;5007324;28;20030;-63
2021/11/16 07:44:17;;;;;;;8.70;5.80;;;;;;;-140.79;100.00;63287.88;5006679;28;20064;-63
2021/11/16 07:46:53;;;;;;;9.38;6.03;;;;;;;-140.79;100.00;63287.88;5006454;28;20029;-63
2021/11/16 07:49:19;;;;;;;8.60;5.57;;;;;;;-140.79;100.00;63287.88;5006129;28;20077;-62
2021/11/16 07:51:44;;;;;;;8.50;6.00;;;;;;;-140.79;100.00;63287.88;5021088;28;20037;-63
2021/11/16 07:54:10;;;;;;;8.52;5.70;;;;;;;-140.79;100.00;63287.88;5020379;28;20562;-63
2021/11/16 07:56:36;;;;;;;8.45;5.72;;;;;;;-140.79;100.00;63287.88;5005487;28;20030;-63
2021/11/16 07:59:05;;;;;;;8.13;5.32;;;;;;;-140.79;100.00;63287.88;5005531;28;20416;-62
2021/11/16 08:05:01;;;;;;;9.07;5.57;;;;;;;-140.79;100.00;63287.88;5042726;28;20053;-63
2021/11/16 08:07:21;;;;;;;7.82;5.53;;;;;;;-140.79;100.00;63287.88;5043686;28;20041;-62
2021/11/16 08:09:49;;;;;;;8.60;5.88;;;;;;;-140.79;100.00;63287.88;5029844;28;20033;-62
2021/11/16 08:14:45;;;;;;;;;;;;;;;-140.79;100.00;63287.88;5045884;28;20031;-63
2021/11/16 08:17:10;;;;;;;7.00;5.20;;;;;;;-140.79;100.00;63287.88;5044062;28;19916;-63
2021/11/16 08:19:38;;;;;;;7.47;5.10;;;;;;;-140.79;100.00;63287.88;4992573;28;20081;-62
2021/11/16 08:22:06;;;;;;;7.15;5.45;;;;;;;-140.79;100.00;63287.88;5065115;28;20012;-63
2021/11/16 08:24:33;;;;;;;8.73;5.68;;;;;;;-140.79;100.00;63287.88;5065067;28;20063;-63
2021/11/16 08:27:00;;;;;;;7.97;5.18;;;;;;;-140.79;100.00;63287.88;5065501;28;20070;-63
2021/11/16 08:29:31;;;;;;;7.93;4.90;;;;;;;-140.79;100.00;63287.88;5064356;28;20130;-62
2021/11/16 08:32:09;;;;;;;8.05;5.63;;;;;;;-140.79;100.00;63287.88;5065369;28;20040;-63
2021/11/16 08:34:37;;;;;;;6.70;4.63;;;;;;;-140.79;100.00;63287.88;5064342;28;20180;-63
2021/11/16 08:37:06;;;;;;;7.15;5.13;;;;;;;-140.79;100.00;63287.88;5065630;28;20413;-62
2021/11/16 08:39:45;;;;;;;8.68;5.55;;;;;;;-140.79;100.00;63287.88;5065725;28;20364;-62
2021/11/16 08:42:30;;;;;;;7.72;5.38;;;;;;;-140.79;100.00;63287.88;5063728;28;20016;-63
2021/11/16 08:45:03;;;;;;;8.35;5.35;;;;;;;-140.79;100.00;63287.88;5064807;28;20036;-61
2021/11/16 08:47:58;;;;;;;7.05;4.75;;;;;;;-140.79;100.00;63287.88;5047613;28;20050;-62
2021/11/16 08:50:32;;;;;;;7.93;5.20;;;;;;;-140.79;100.00;63287.88;5065659;28;20123;-62
2021/11/16 08:53:03;;;;;;;8.75;5.10;;;;;;;-140.79;100.00;63287.88;5065309;28;20150;-62
2021/11/16 08:55:31;;;;;;;8.20;5.18;;;;;;;-140.79;100.00;63287.88;5065336;28;20024;-62
2021/11/16 08:57:58;;;;;;;6.55;4.50;;;;;;;-140.79;100.00;63287.88;5064392;28;20024;-61
2021/11/16 09:00:29;;;;;;;7.45;5.05;;;;;;;-140.79;100.00;63287.88;5047503;28;20024;-62
2021/11/16 09:03:12;;;;;;;7.75;4.82;;;;;;;-140.79;100.00;63287.88;5064546;28;20048;-62
2021/11/16 09:05:41;;;;;;;7.88;4.93;;;;;;;-140.79;100.00;63287.88;5063432;28;20062;-63
2021/11/16 09:08:16;;;;;;;7.75;5.25;;;;;;;-140.79;100.00;63287.88;5064999;28;20037;-62
2021/11/16 09:10:43;;;;;;;7.30;4.68;;;;;;;-140.79;100.00;63287.88;5065332;28;20088;-62
2021/11/16 09:13:09;;;;;;;8.45;4.97;;;;;;;-140.79;100.00;63287.88;5064798;28;20455;-62
2021/11/16 09:15:41;;;;;;;7.93;4.55;;;;;;;-140.79;100.00;63287.88;5063776;28;20499;-61
2021/11/16 09:18:17;;;;;;;11.43;4.35;;;;;;;-140.79;100.00;63287.88;5064654;28;20506;-60
2021/11/16 09:20:45;;;;;;;7.32;4.63;;;;;;;-140.79;100.00;63287.88;5065358;28;20041;-62
2021/11/16 09:23:19;;;;;;;8.43;5.07;;;;;;;-140.79;100.00;63287.88;5062762;28;20558;-62
2021/11/16 09:25:47;;;;;;;8.27;4.43;;;;;;;-140.79;100.00;63287.88;5064075;28;20043;-69
2021/11/16 09:28:36;;;;;;;6.18;4.50;;;;;;;-140.79;100.00;63287.88;5063238;28;20109;-62
2021/11/16 09:31:27;;;;;;;7.25;4.65;;;;;;;-140.79;100.00;63287.88;5064877;28;20028;-62
2021/11/16 09:33:53;;;;;;;6.95;4.53;;;;;;;-140.79;100.00;63287.88;5064630;28;20040;-63
2021/11/16 09:36:30;;;;;;;6.95;4.53;;;;;;;-140.79;100.00;63287.88;5063257;28;20033;-62
2021/11/16 09:38:58;;;;;;;6.32;4.10;;;;;;;-140.79;100.00;63287.88;5046371;28;20028;-62
2021/11/16 09:41:41;;;;;;;6.65;4.63;;;;;;;-140.79;100.00;63287.88;5049806;28;20056;-62
2021/11/16 09:44:27;;;;;;;7.15;4.35;;;;;;;-140.79;100.00;63287.88;5043834;28;20033;-62
2021/11/16 09:46:52;;;;;;;6.95;4.50;;;;;;;-140.79;100.00;63287.88;5044531;28;20526;-62
2021/11/16 09:49:41;;;;;;;7.40;4.60;;;;;;;-140.79;100.00;63287.88;5049015;28;20063;-62
2021/11/16 09:52:16;;;;;;;8.98;5.20;;;;;;;-140.79;100.00;63287.88;5064087;28;20028;-61
2021/11/16 09:54:49;;;;;;;6.93;4.57;;;;;;;-140.79;100.00;63287.88;5064322;28;20111;-62
2021/11/16 09:57:14;;;;;;;6.88;4.47;;;;;;;-140.79;100.00;63287.88;5064185;28;20039;-62
2021/11/16 09:59:45;;;;;;;6.57;4.40;;;;;;;-140.79;100.00;63287.88;5063888;28;20033;-62
2021/11/16 10:02:25;;;;;;;5.68;4.05;;;;;;;-140.79;100.00;63287.88;5061672;28;20063;-63
2021/11/16 10:04:53;;;;;;;6.45;4.10;;;;;;;-140.79;100.00;63287.88;5062412;28;20036;-62
2021/11/16 10:07:21;;;;;;;7.22;4.47;;;;;;;-140.79;100.00;63287.88;5065343;28;20060;-63
2021/11/16 10:09:47;;;;;;;6.65;4.40;;;;;;;-140.79;100.00;63287.88;5065654;28;20017;-63
2021/11/16 10:12:13;;;;;;;5.60;3.28;;;;;;;-140.79;100.00;63287.88;5064247;28;20025;-63
2021/11/16 10:14:38;;;;;;;6.82;3.75;;;;;;;-140.79;100.00;63287.88;5063839;28;20105;-64
2021/11/16 10:17:04;;;;;;;6.65;4.00;;;;;;;-140.79;100.00;63287.88;5063963;28;20395;-63
2021/11/16 10:19:30;;;;;;;7.40;3.45;;;;;;;-140.79;100.00;63287.88;5063330;28;20103;-62
2021/11/16 10:21:56;;;;;;;4.80;3.28;;;;;;;-140.79;100.00;63287.88;5062531;28;20038;-63
2021/11/16 10:24:29;;;;;;;5.30;3.67;;;;;;;-140.79;100.00;63287.88;5063922;28;20020;-63
2021/11/16 10:27:00;;;;;;;5.43;3.33;;;;;;;-140.79;100.00;63287.88;5061926;28;20111;-63
2021/11/16 10:29:26;;;;;;;5.75;4.07;;;;;;;-140.79;100.00;63287.88;5063203;28;20798;-63
2021/11/16 10:31:52;;;;;;;7.22;4.00;;;;;;;-140.79;100.00;63287.88;5063473;28;20032;-62
2021/11/16 10:34:17;;;;;;;6.97;3.85;;;;;;;-140.79;100.00;63287.88;5062946;28;20055;-62
2021/11/16 10:36:43;;;;;;;6.78;3.40;;;;;;;-140.79;100.00;63287.88;5061823;28;20028;-62
2021/11/16 10:39:09;;;;;;;6.57;3.80;;;;;;;-140.79;100.00;63287.88;5063631;28;20032;-61
2021/11/16 10:41:36;;;;;;;7.43;3.75;;;;;;;-140.79;100.00;63287.88;5063544;28;20078;-62
2021/11/16 10:44:06;;;;;;;5.18;3.40;;;;;;;-140.79;100.00;63287.88;5063533;28;20024;-62
2021/11/16 10:46:42;;;;;;;6.53;3.65;;;;;;;-140.79;100.00;63287.88;5063409;28;20028;-62
2021/11/16 10:49:10;;;;;;;5.95;3.53;;;;;;;-140.79;100.00;63287.88;5063194;28;20505;-62
2021/11/16 10:51:36;;;;;;;6.35;3.72;;;;;;;-140.79;100.00;63287.88;5062346;28;20037;-63
2021/11/16 10:54:02;;;;;;;4.70;3.05;;;;;;;-140.79;100.00;63287.88;5063146;28;20043;-63
2021/11/16 10:56:30;;;;;;;4.72;3.20;;;;;;;-140.79;100.00;63287.88;5063151;28;20049;-63
2021/11/16 10:59:03;;;;;;;4.63;3.20;;;;;;;-140.79;100.00;63287.88;5061014;28;20653;-69
2021/11/16 11:01:28;;;;;;;6.10;3.35;;;;;;;-140.79;100.00;63287.88;5065727;28;20414;-65
2021/11/16 11:03:55;;;;;;;5.63;3.53;;;;;;;-140.79;100.00;63287.88;5062020;28;20056;-63
2021/11/16 11:06:20;;;;;;;6.15;3.75;;;;;;;-140.79;100.00;63287.88;5046905;28;20033;-62
2021/11/16 11:08:56;;;;;;;6.22;3.55;;;;;;;-140.79;100.00;63287.88;5046526;28;20576;-63
2021/11/16 11:11:38;;;;;;;12.07;3.17;;;;;;;-140.79;100.00;63287.88;5046982;28;20075;-63
2021/11/16 11:14:04;;;;;;;5.20;3.10;;;;;;;-140.79;100.00;63287.88;5046298;28;20114;-63
2021/11/16 11:16:33;;;;;;;5.72;3.53;;;;;;;-140.79;100.00;63287.88;5046108;28;20639;-63
2021/11/16 11:18:59;;;;;;;6.53;3.25;;;;;;;-140.79;100.00;63287.88;5045594;28;20055;-63
2021/11/16 11:21:42;;;;;;;4.40;2.90;;;;;;;-140.79;100.00;63287.88;5045630;28;20029;-62
2021/11/16 11:24:18;;;;;;;5.10;3.30;;;;;;;-140.79;100.00;63287.88;5045940;28;20029;-64